sensor_id;sensor_type;location;lat;lon;timestamp;P1;durP1;ratioP1;P2;durP2;ratioP2
19004;SDS011;9635;52.078;8.648;2023-10-09T00:02:19;6.13;;;3.10;;
19004;SDS011;9635;52.078;8.648;2023-10-09T00:07:24;8.60;;;4.13;;
19004;SDS011;9635;52.078;8.648;2023-10-09T00:12:31;8.07;;;3.13;;
19004;SDS011;9635;52.078;8.648;2023-10-09T00:17:34;6.80;;;3.63;;
19004;SDS011;9635;52.078;8.648;2023-10-09T00:22:42;7.55;;;3.85;;
19004;SDS011;9635;52.078;8.648;2023-10-09T00:27:48;6.00;;;3.80;;
19004;SDS011;9635;52.078;8.648;2023-10-09T00:32:50;8.48;;;4.32;;
19004;SDS011;9635;52.078;8.648;2023-10-09T00:38:03;7.45;;;4.03;;
19004;SDS011;9635;52.078;8.648;2023-10-09T00:43:15;9.52;;;3.90;;
19004;SDS011;9635;52.078;8.648;2023-10-09T00:48:21;16.63;;;5.72;;
19004;SDS011;9635;52.078;8.648;2023-10-09T00:53:33;12.38;;;5.03;;
19004;SDS011;9635;52.078;8.648;2023-10-09T00:58:37;14.35;;;5.70;;
19004;SDS011;9635;52.078;8.648;2023-10-09T01:03:41;12.23;;;6.65;;
19004;SDS011;9635;52.078;8.648;2023-10-09T01:08:47;18.27;;;7.85;;
19004;SDS011;9635;52.078;8.648;2023-10-09T01:13:58;14.32;;;7.57;;
19004;SDS011;9635;52.078;8.648;2023-10-09T01:19:13;14.90;;;7.75;;
19004;SDS011;9635;52.078;8.648;2023-10-09T01:24:23;12.82;;;8.35;;
19004;SDS011;9635;52.078;8.648;2023-10-09T01:29:28;15.15;;;6.38;;
19004;SDS011;9635;52.078;8.648;2023-10-09T01:34:31;12.07;;;6.03;;
19004;SDS011;9635;52.078;8.648;2023-10-09T01:39:44;11.75;;;6.80;;
19004;SDS011;9635;52.078;8.648;2023-10-09T01:44:49;15.20;;;6.68;;
19004;SDS011;9635;52.078;8.648;2023-10-09T01:49:53;11.55;;;6.28;;
19004;SDS011;9635;52.078;8.648;2023-10-09T01:55:00;20.38;;;10.23;;
19004;SDS011;9635;52.078;8.648;2023-10-09T02:00:15;31.20;;;14.20;;
19004;SDS011;9635;52.078;8.648;2023-10-09T02:05:24;37.13;;;16.80;;
19004;SDS011;9635;52.078;8.648;2023-10-09T02:10:29;37.22;;;17.60;;
19004;SDS011;9635;52.078;8.648;2023-10-09T02:15:34;39.00;;;17.70;;
19004;SDS011;9635;52.078;8.648;2023-10-09T02:20:58;44.30;;;20.08;;
19004;SDS011;9635;52.078;8.648;2023-10-09T02:26:17;38.87;;;18.73;;
19004;SDS011;9635;52.078;8.648;2023-10-09T02:31:28;50.47;;;21.88;;
19004;SDS011;9635;52.078;8.648;2023-10-09T02:36:38;49.13;;;21.40;;
19004;SDS011;9635;52.078;8.648;2023-10-09T02:41:51;47.42;;;22.40;;
19004;SDS011;9635;52.078;8.648;2023-10-09T02:52:07;44.78;;;21.67;;
19004;SDS011;9635;52.078;8.648;2023-10-09T02:57:12;52.10;;;22.92;;
19004;SDS011;9635;52.078;8.648;2023-10-09T03:07:26;48.08;;;24.48;;
19004;SDS011;9635;52.078;8.648;2023-10-09T03:12:30;58.03;;;26.63;;
19004;SDS011;9635;52.078;8.648;2023-10-09T03:17:34;49.15;;;26.02;;
19004;SDS011;9635;52.078;8.648;2023-10-09T03:22:37;49.00;;;25.90;;
19004;SDS011;9635;52.078;8.648;2023-10-09T03:27:42;51.63;;;25.58;;
19004;SDS011;9635;52.078;8.648;2023-10-09T03:32:46;49.33;;;25.83;;
19004;SDS011;9635;52.078;8.648;2023-10-09T03:37:53;52.80;;;24.25;;
19004;SDS011;9635;52.078;8.648;2023-10-09T03:43:00;50.45;;;25.95;;
19004;SDS011;9635;52.078;8.648;2023-10-09T03:48:03;51.83;;;24.48;;
19004;SDS011;9635;52.078;8.648;2023-10-09T03:53:12;51.25;;;24.90;;
19004;SDS011;9635;52.078;8.648;2023-10-09T03:58:17;53.65;;;23.98;;
19004;SDS011;9635;52.078;8.648;2023-10-09T04:03:20;44.47;;;22.33;;
19004;SDS011;9635;52.078;8.648;2023-10-09T04:08:23;49.97;;;23.15;;
19004;SDS011;9635;52.078;8.648;2023-10-09T04:13:32;47.40;;;23.48;;
19004;SDS011;9635;52.078;8.648;2023-10-09T04:18:36;43.28;;;21.95;;
19004;SDS011;9635;52.078;8.648;2023-10-09T04:23:41;45.03;;;24.05;;
19004;SDS011;9635;52.078;8.648;2023-10-09T04:29:13;50.10;;;24.52;;
19004;SDS011;9635;52.078;8.648;2023-10-09T04:34:20;47.42;;;23.67;;
19004;SDS011;9635;52.078;8.648;2023-10-09T04:39:36;58.60;;;24.55;;
19004;SDS011;9635;52.078;8.648;2023-10-09T04:44:49;49.22;;;23.15;;
19004;SDS011;9635;52.078;8.648;2023-10-09T04:50:18;61.10;;;25.17;;
19004;SDS011;9635;52.078;8.648;2023-10-09T04:55:39;50.70;;;23.52;;
19004;SDS011;9635;52.078;8.648;2023-10-09T05:00:47;59.92;;;24.98;;
19004;SDS011;9635;52.078;8.648;2023-10-09T05:06:03;61.33;;;24.52;;
19004;SDS011;9635;52.078;8.648;2023-10-09T05:11:22;51.72;;;23.50;;
19004;SDS011;9635;52.078;8.648;2023-10-09T05:16:40;57.67;;;24.63;;
19004;SDS011;9635;52.078;8.648;2023-10-09T05:21:55;54.55;;;25.40;;
19004;SDS011;9635;52.078;8.648;2023-10-09T05:26:59;53.85;;;27.75;;
19004;SDS011;9635;52.078;8.648;2023-10-09T05:32:20;57.55;;;27.67;;
19004;SDS011;9635;52.078;8.648;2023-10-09T05:37:31;54.67;;;27.75;;
19004;SDS011;9635;52.078;8.648;2023-10-09T05:42:36;59.95;;;27.67;;
19004;SDS011;9635;52.078;8.648;2023-10-09T05:47:47;51.72;;;29.15;;
19004;SDS011;9635;52.078;8.648;2023-10-09T05:52:55;49.80;;;26.77;;
19004;SDS011;9635;52.078;8.648;2023-10-09T05:58:20;52.22;;;24.80;;
19004;SDS011;9635;52.078;8.648;2023-10-09T06:03:42;47.58;;;23.05;;
19004;SDS011;9635;52.078;8.648;2023-10-09T06:08:51;57.10;;;27.90;;
19004;SDS011;9635;52.078;8.648;2023-10-09T06:14:15;47.78;;;26.90;;
19004;SDS011;9635;52.078;8.648;2023-10-09T06:19:27;52.83;;;30.23;;
19004;SDS011;9635;52.078;8.648;2023-10-09T06:24:33;50.90;;;29.08;;
19004;SDS011;9635;52.078;8.648;2023-10-09T06:29:43;51.88;;;26.42;;
19004;SDS011;9635;52.078;8.648;2023-10-09T06:35:16;54.90;;;27.27;;
19004;SDS011;9635;52.078;8.648;2023-10-09T06:40:23;50.42;;;26.00;;
19004;SDS011;9635;52.078;8.648;2023-10-09T06:45:40;53.63;;;28.17;;
19004;SDS011;9635;52.078;8.648;2023-10-09T06:50:57;50.65;;;29.10;;
19004;SDS011;9635;52.078;8.648;2023-10-09T06:56:10;53.95;;;29.52;;
19004;SDS011;9635;52.078;8.648;2023-10-09T07:01:24;56.28;;;27.58;;
19004;SDS011;9635;52.078;8.648;2023-10-09T07:06:32;63.00;;;30.98;;
19004;SDS011;9635;52.078;8.648;2023-10-09T07:11:57;56.65;;;31.13;;
19004;SDS011;9635;52.078;8.648;2023-10-09T07:17:05;50.40;;;28.50;;
19004;SDS011;9635;52.078;8.648;2023-10-09T07:22:19;57.63;;;29.83;;
19004;SDS011;9635;52.078;8.648;2023-10-09T07:32:46;58.03;;;28.30;;
19004;SDS011;9635;52.078;8.648;2023-10-09T07:37:50;48.13;;;28.23;;
19004;SDS011;9635;52.078;8.648;2023-10-09T07:42:54;55.58;;;29.85;;
19004;SDS011;9635;52.078;8.648;2023-10-09T07:48:06;51.45;;;29.00;;
19004;SDS011;9635;52.078;8.648;2023-10-09T07:53:17;48.80;;;28.05;;
19004;SDS011;9635;52.078;8.648;2023-10-09T07:58:21;53.63;;;31.08;;
19004;SDS011;9635;52.078;8.648;2023-10-09T08:03:26;54.40;;;32.10;;
19004;SDS011;9635;52.078;8.648;2023-10-09T08:08:36;55.45;;;31.65;;
19004;SDS011;9635;52.078;8.648;2023-10-09T08:13:57;58.95;;;31.15;;
19004;SDS011;9635;52.078;8.648;2023-10-09T08:19:03;49.08;;;28.67;;
19004;SDS011;9635;52.078;8.648;2023-10-09T08:24:34;53.45;;;29.77;;
19004;SDS011;9635;52.078;8.648;2023-10-09T08:29:43;51.03;;;28.60;;
19004;SDS011;9635;52.078;8.648;2023-10-09T08:34:48;48.90;;;27.10;;
19004;SDS011;9635;52.078;8.648;2023-10-09T08:39:59;42.70;;;24.25;;
19004;SDS011;9635;52.078;8.648;2023-10-09T08:45:02;50.38;;;25.35;;
19004;SDS011;9635;52.078;8.648;2023-10-09T08:50:07;41.58;;;24.85;;
19004;SDS011;9635;52.078;8.648;2023-10-09T08:55:15;49.28;;;28.05;;
19004;SDS011;9635;52.078;8.648;2023-10-09T09:00:19;50.40;;;28.67;;
19004;SDS011;9635;52.078;8.648;2023-10-09T09:05:25;49.30;;;26.83;;
19004;SDS011;9635;52.078;8.648;2023-10-09T09:10:31;51.15;;;28.08;;
19004;SDS011;9635;52.078;8.648;2023-10-09T09:15:37;50.97;;;30.10;;
19004;SDS011;9635;52.078;8.648;2023-10-09T09:20:42;42.55;;;21.98;;
19004;SDS011;9635;52.078;8.648;2023-10-09T09:25:49;51.20;;;27.70;;
19004;SDS011;9635;52.078;8.648;2023-10-09T09:31:06;54.33;;;30.67;;
19004;SDS011;9635;52.078;8.648;2023-10-09T09:36:14;54.65;;;27.27;;
19004;SDS011;9635;52.078;8.648;2023-10-09T09:41:19;50.72;;;30.23;;
19004;SDS011;9635;52.078;8.648;2023-10-09T09:46:26;52.97;;;29.27;;
19004;SDS011;9635;52.078;8.648;2023-10-09T09:51:35;51.25;;;29.63;;
19004;SDS011;9635;52.078;8.648;2023-10-09T09:56:39;57.70;;;31.35;;
19004;SDS011;9635;52.078;8.648;2023-10-09T10:01:44;56.53;;;31.08;;
19004;SDS011;9635;52.078;8.648;2023-10-09T10:06:58;50.80;;;29.30;;
19004;SDS011;9635;52.078;8.648;2023-10-09T10:12:07;56.03;;;32.47;;
19004;SDS011;9635;52.078;8.648;2023-10-09T10:17:12;50.10;;;27.55;;
19004;SDS011;9635;52.078;8.648;2023-10-09T10:22:23;50.47;;;27.20;;
19004;SDS011;9635;52.078;8.648;2023-10-09T10:27:30;59.35;;;32.03;;
19004;SDS011;9635;52.078;8.648;2023-10-09T10:37:59;48.10;;;29.83;;
19004;SDS011;9635;52.078;8.648;2023-10-09T10:43:16;49.17;;;28.88;;
19004;SDS011;9635;52.078;8.648;2023-10-09T10:48:34;52.85;;;28.85;;
19004;SDS011;9635;52.078;8.648;2023-10-09T10:53:50;47.38;;;28.95;;
19004;SDS011;9635;52.078;8.648;2023-10-09T10:59:00;56.72;;;32.17;;
19004;SDS011;9635;52.078;8.648;2023-10-09T11:11:13;58.63;;;35.17;;
19004;SDS011;9635;52.078;8.648;2023-10-09T11:16:19;68.80;;;39.67;;
19004;SDS011;9635;52.078;8.648;2023-10-09T11:21:34;66.25;;;36.58;;
19004;SDS011;9635;52.078;8.648;2023-10-09T11:26:42;82.03;;;46.17;;
19004;SDS011;9635;52.078;8.648;2023-10-09T11:32:00;73.97;;;45.50;;
19004;SDS011;9635;52.078;8.648;2023-10-09T11:37:12;69.40;;;44.22;;
19004;SDS011;9635;52.078;8.648;2023-10-09T11:42:17;75.43;;;48.63;;
19004;SDS011;9635;52.078;8.648;2023-10-09T11:47:38;76.80;;;48.53;;
19004;SDS011;9635;52.078;8.648;2023-10-09T11:52:56;77.57;;;50.47;;
19004;SDS011;9635;52.078;8.648;2023-10-09T11:58:19;85.65;;;53.25;;
19004;SDS011;9635;52.078;8.648;2023-10-09T12:03:26;77.63;;;44.95;;
19004;SDS011;9635;52.078;8.648;2023-10-09T12:08:31;82.57;;;47.75;;
19004;SDS011;9635;52.078;8.648;2023-10-09T12:13:34;84.75;;;49.50;;
19004;SDS011;9635;52.078;8.648;2023-10-09T12:18:41;80.65;;;49.15;;
19004;SDS011;9635;52.078;8.648;2023-10-09T12:23:49;91.18;;;49.88;;
19004;SDS011;9635;52.078;8.648;2023-10-09T12:28:52;82.93;;;47.30;;
19004;SDS011;9635;52.078;8.648;2023-10-09T12:33:56;91.43;;;51.75;;
19004;SDS011;9635;52.078;8.648;2023-10-09T12:39:00;74.07;;;46.63;;
19004;SDS011;9635;52.078;8.648;2023-10-09T12:44:04;71.18;;;41.15;;
19004;SDS011;9635;52.078;8.648;2023-10-09T12:49:15;71.93;;;44.10;;
19004;SDS011;9635;52.078;8.648;2023-10-09T12:54:17;61.15;;;40.08;;
19004;SDS011;9635;52.078;8.648;2023-10-09T12:59:22;59.25;;;40.67;;
19004;SDS011;9635;52.078;8.648;2023-10-09T13:04:27;67.70;;;42.90;;
19004;SDS011;9635;52.078;8.648;2023-10-09T13:09:34;57.03;;;39.08;;
19004;SDS011;9635;52.078;8.648;2023-10-09T13:14:44;62.72;;;40.40;;
19004;SDS011;9635;52.078;8.648;2023-10-09T13:19:50;60.75;;;42.30;;
19004;SDS011;9635;52.078;8.648;2023-10-09T13:24:53;69.43;;;42.90;;
19004;SDS011;9635;52.078;8.648;2023-10-09T13:30:05;73.90;;;44.03;;
19004;SDS011;9635;52.078;8.648;2023-10-09T13:35:12;69.82;;;44.42;;
19004;SDS011;9635;52.078;8.648;2023-10-09T13:40:16;62.58;;;43.33;;
19004;SDS011;9635;52.078;8.648;2023-10-09T13:45:28;65.47;;;41.90;;
19004;SDS011;9635;52.078;8.648;2023-10-09T13:50:33;66.80;;;43.70;;
19004;SDS011;9635;52.078;8.648;2023-10-09T13:55:39;66.50;;;42.67;;
19004;SDS011;9635;52.078;8.648;2023-10-09T14:00:45;64.20;;;43.78;;
19004;SDS011;9635;52.078;8.648;2023-10-09T14:05:52;64.57;;;43.42;;
19004;SDS011;9635;52.078;8.648;2023-10-09T14:10:58;72.72;;;45.90;;
19004;SDS011;9635;52.078;8.648;2023-10-09T14:16:01;74.88;;;47.38;;
19004;SDS011;9635;52.078;8.648;2023-10-09T14:21:05;81.75;;;45.60;;
19004;SDS011;9635;52.078;8.648;2023-10-09T14:26:17;65.22;;;41.53;;
19004;SDS011;9635;52.078;8.648;2023-10-09T14:31:24;69.32;;;41.42;;
19004;SDS011;9635;52.078;8.648;2023-10-09T14:36:32;59.58;;;37.80;;
19004;SDS011;9635;52.078;8.648;2023-10-09T14:41:36;61.50;;;37.83;;
19004;SDS011;9635;52.078;8.648;2023-10-09T14:46:38;58.28;;;37.60;;
19004;SDS011;9635;52.078;8.648;2023-10-09T14:51:43;55.35;;;34.88;;
19004;SDS011;9635;52.078;8.648;2023-10-09T14:56:47;53.45;;;32.53;;
19004;SDS011;9635;52.078;8.648;2023-10-09T15:01:51;58.58;;;33.95;;
19004;SDS011;9635;52.078;8.648;2023-10-09T15:06:56;49.95;;;30.45;;
19004;SDS011;9635;52.078;8.648;2023-10-09T15:11:59;46.47;;;29.02;;
19004;SDS011;9635;52.078;8.648;2023-10-09T15:17:02;40.42;;;26.10;;
19004;SDS011;9635;52.078;8.648;2023-10-09T15:22:09;40.88;;;26.42;;
19004;SDS011;9635;52.078;8.648;2023-10-09T15:27:13;43.88;;;25.50;;
19004;SDS011;9635;52.078;8.648;2023-10-09T15:32:16;42.80;;;26.15;;
19004;SDS011;9635;52.078;8.648;2023-10-09T15:37:26;39.42;;;21.63;;
19004;SDS011;9635;52.078;8.648;2023-10-09T15:42:30;38.30;;;23.15;;
19004;SDS011;9635;52.078;8.648;2023-10-09T15:47:36;35.33;;;19.73;;
19004;SDS011;9635;52.078;8.648;2023-10-09T15:52:42;29.77;;;19.38;;
19004;SDS011;9635;52.078;8.648;2023-10-09T15:57:45;31.50;;;22.00;;
19004;SDS011;9635;52.078;8.648;2023-10-09T16:02:50;29.25;;;20.38;;
19004;SDS011;9635;52.078;8.648;2023-10-09T16:07:57;32.30;;;22.60;;
19004;SDS011;9635;52.078;8.648;2023-10-09T16:13:01;38.42;;;21.23;;
19004;SDS011;9635;52.078;8.648;2023-10-09T16:18:05;44.70;;;30.60;;
19004;SDS011;9635;52.078;8.648;2023-10-09T16:23:10;41.83;;;31.83;;
19004;SDS011;9635;52.078;8.648;2023-10-09T16:28:14;37.65;;;24.45;;
19004;SDS011;9635;52.078;8.648;2023-10-09T16:33:17;57.78;;;37.13;;
19004;SDS011;9635;52.078;8.648;2023-10-09T16:38:22;87.38;;;55.92;;
19004;SDS011;9635;52.078;8.648;2023-10-09T16:43:26;36.47;;;20.70;;
19004;SDS011;9635;52.078;8.648;2023-10-09T16:48:29;33.08;;;19.08;;
19004;SDS011;9635;52.078;8.648;2023-10-09T16:53:33;33.67;;;20.35;;
19004;SDS011;9635;52.078;8.648;2023-10-09T16:58:38;37.72;;;21.50;;
19004;SDS011;9635;52.078;8.648;2023-10-09T17:03:43;39.45;;;20.17;;
19004;SDS011;9635;52.078;8.648;2023-10-09T17:08:50;42.15;;;24.80;;
19004;SDS011;9635;52.078;8.648;2023-10-09T17:13:54;37.83;;;21.50;;
19004;SDS011;9635;52.078;8.648;2023-10-09T17:18:59;37.75;;;21.77;;
19004;SDS011;9635;52.078;8.648;2023-10-09T17:24:04;38.75;;;21.90;;
19004;SDS011;9635;52.078;8.648;2023-10-09T17:29:12;35.97;;;23.38;;
19004;SDS011;9635;52.078;8.648;2023-10-09T17:34:15;37.72;;;27.13;;
19004;SDS011;9635;52.078;8.648;2023-10-09T17:39:20;40.88;;;26.88;;
19004;SDS011;9635;52.078;8.648;2023-10-09T17:44:27;39.55;;;25.25;;
19004;SDS011;9635;52.078;8.648;2023-10-09T17:49:30;41.92;;;25.58;;
19004;SDS011;9635;52.078;8.648;2023-10-09T17:54:34;40.58;;;28.60;;
19004;SDS011;9635;52.078;8.648;2023-10-09T17:59:37;42.47;;;28.38;;
19004;SDS011;9635;52.078;8.648;2023-10-09T18:04:41;51.83;;;35.33;;
19004;SDS011;9635;52.078;8.648;2023-10-09T18:09:46;46.47;;;29.40;;
19004;SDS011;9635;52.078;8.648;2023-10-09T18:14:53;40.53;;;30.30;;
19004;SDS011;9635;52.078;8.648;2023-10-09T18:20:00;35.33;;;22.73;;
19004;SDS011;9635;52.078;8.648;2023-10-09T18:25:09;40.42;;;26.00;;
19004;SDS011;9635;52.078;8.648;2023-10-09T18:30:12;38.33;;;27.33;;
19004;SDS011;9635;52.078;8.648;2023-10-09T18:35:16;31.08;;;23.77;;
19004;SDS011;9635;52.078;8.648;2023-10-09T18:40:21;36.95;;;23.88;;
19004;SDS011;9635;52.078;8.648;2023-10-09T18:45:27;26.83;;;19.05;;
19004;SDS011;9635;52.078;8.648;2023-10-09T18:50:36;24.27;;;17.55;;
19004;SDS011;9635;52.078;8.648;2023-10-09T18:55:43;30.13;;;18.90;;
19004;SDS011;9635;52.078;8.648;2023-10-09T19:00:46;27.50;;;16.17;;
19004;SDS011;9635;52.078;8.648;2023-10-09T19:05:53;25.85;;;15.95;;
19004;SDS011;9635;52.078;8.648;2023-10-09T19:11:00;21.83;;;14.93;;
19004;SDS011;9635;52.078;8.648;2023-10-09T19:16:11;27.67;;;14.90;;
19004;SDS011;9635;52.078;8.648;2023-10-09T19:21:14;23.48;;;13.38;;
19004;SDS011;9635;52.078;8.648;2023-10-09T19:26:19;24.30;;;15.75;;
19004;SDS011;9635;52.078;8.648;2023-10-09T19:31:22;25.92;;;15.52;;
19004;SDS011;9635;52.078;8.648;2023-10-09T19:36:25;25.08;;;16.52;;
19004;SDS011;9635;52.078;8.648;2023-10-09T19:41:30;23.75;;;16.10;;
19004;SDS011;9635;52.078;8.648;2023-10-09T19:46:37;29.55;;;15.98;;
19004;SDS011;9635;52.078;8.648;2023-10-09T19:51:40;26.23;;;15.85;;
19004;SDS011;9635;52.078;8.648;2023-10-09T19:56:45;31.88;;;18.23;;
19004;SDS011;9635;52.078;8.648;2023-10-09T20:01:48;27.15;;;17.33;;
19004;SDS011;9635;52.078;8.648;2023-10-09T20:06:53;27.95;;;19.17;;
19004;SDS011;9635;52.078;8.648;2023-10-09T20:11:57;33.10;;;19.67;;
19004;SDS011;9635;52.078;8.648;2023-10-09T20:17:02;40.95;;;21.20;;
19004;SDS011;9635;52.078;8.648;2023-10-09T20:22:05;32.72;;;18.80;;
19004;SDS011;9635;52.078;8.648;2023-10-09T20:27:10;28.20;;;19.42;;
19004;SDS011;9635;52.078;8.648;2023-10-09T20:32:13;35.58;;;24.20;;
19004;SDS011;9635;52.078;8.648;2023-10-09T20:37:17;31.60;;;19.00;;
19004;SDS011;9635;52.078;8.648;2023-10-09T20:42:21;28.88;;;16.75;;
19004;SDS011;9635;52.078;8.648;2023-10-09T20:47:25;15.23;;;10.20;;
19004;SDS011;9635;52.078;8.648;2023-10-09T20:52:28;21.08;;;11.75;;
19004;SDS011;9635;52.078;8.648;2023-10-09T20:57:33;12.75;;;6.68;;
19004;SDS011;9635;52.078;8.648;2023-10-09T21:02:36;14.73;;;7.40;;
19004;SDS011;9635;52.078;8.648;2023-10-09T21:07:39;15.30;;;7.32;;
19004;SDS011;9635;52.078;8.648;2023-10-09T21:12:44;9.55;;;6.35;;
19004;SDS011;9635;52.078;8.648;2023-10-09T21:17:50;12.63;;;6.10;;
19004;SDS011;9635;52.078;8.648;2023-10-09T21:22:54;9.43;;;5.13;;
19004;SDS011;9635;52.078;8.648;2023-10-09T21:27:58;11.73;;;6.18;;
19004;SDS011;9635;52.078;8.648;2023-10-09T21:33:01;13.88;;;5.75;;
19004;SDS011;9635;52.078;8.648;2023-10-09T21:38:04;13.65;;;5.75;;
19004;SDS011;9635;52.078;8.648;2023-10-09T21:43:10;10.55;;;5.22;;
19004;SDS011;9635;52.078;8.648;2023-10-09T21:48:14;11.95;;;5.97;;
19004;SDS011;9635;52.078;8.648;2023-10-09T21:53:18;14.85;;;6.13;;
19004;SDS011;9635;52.078;8.648;2023-10-09T21:58:22;12.55;;;6.68;;
19004;SDS011;9635;52.078;8.648;2023-10-09T22:03:26;12.70;;;6.60;;
19004;SDS011;9635;52.078;8.648;2023-10-09T22:08:29;15.75;;;6.60;;
19004;SDS011;9635;52.078;8.648;2023-10-09T22:13:35;14.57;;;6.15;;
19004;SDS011;9635;52.078;8.648;2023-10-09T22:18:39;12.77;;;6.47;;
19004;SDS011;9635;52.078;8.648;2023-10-09T22:23:43;12.80;;;6.38;;
19004;SDS011;9635;52.078;8.648;2023-10-09T22:28:55;16.90;;;6.72;;
19004;SDS011;9635;52.078;8.648;2023-10-09T22:33:58;13.63;;;6.35;;
19004;SDS011;9635;52.078;8.648;2023-10-09T22:39:12;13.48;;;6.75;;
19004;SDS011;9635;52.078;8.648;2023-10-09T22:44:24;14.00;;;6.95;;
19004;SDS011;9635;52.078;8.648;2023-10-09T22:49:34;10.25;;;6.93;;
19004;SDS011;9635;52.078;8.648;2023-10-09T22:54:37;15.48;;;8.10;;
19004;SDS011;9635;52.078;8.648;2023-10-09T22:59:44;16.90;;;7.07;;
19004;SDS011;9635;52.078;8.648;2023-10-09T23:04:52;11.05;;;6.25;;
19004;SDS011;9635;52.078;8.648;2023-10-09T23:10:05;10.88;;;6.80;;
19004;SDS011;9635;52.078;8.648;2023-10-09T23:15:18;12.23;;;6.78;;
19004;SDS011;9635;52.078;8.648;2023-10-09T23:20:35;13.10;;;7.82;;
19004;SDS011;9635;52.078;8.648;2023-10-09T23:25:50;10.93;;;6.47;;
19004;SDS011;9635;52.078;8.648;2023-10-09T23:30:57;14.02;;;7.13;;
19004;SDS011;9635;52.078;8.648;2023-10-09T23:36:00;14.48;;;6.65;;
19004;SDS011;9635;52.078;8.648;2023-10-09T23:41:06;11.88;;;6.35;;
19004;SDS011;9635;52.078;8.648;2023-10-09T23:46:13;10.40;;;6.10;;
19004;SDS011;9635;52.078;8.648;2023-10-09T23:51:19;15.38;;;7.07;;
19004;SDS011;9635;52.078;8.648;2023-10-09T23:56:22;12.52;;;6.20;;
